Time;durP1;ratioP1;P1;durP2;ratioP2;P2;SDS_P1;SDS_P2;PMS_P1;PMS_P2;Temp;Humidity;BMP_temperature;BMP_pressure;BME280_temperature;BME280_humidity;BME280_pressure;Samples;Min_cycle;Max_cycle;Signal;HPM_P1;HPM_P2
2020/12/22 00:00:46;;;;;;;1.00;0.60;;;;;;;9.80;100.00;96548.81;4918929;29;20521;-69
2020/12/22 00:03:13;;;;;;;0.80;0.60;;;;;;;9.79;100.00;96547.13;4917949;29;21181;-69
2020/12/22 00:05:40;;;;;;;2.97;0.50;;;;;;;9.82;100.00;96542.59;4918585;29;20997;-72
2020/12/22 00:08:11;;;;;;;0.70;0.50;;;;;;;9.87;100.00;96539.72;4918018;28;20939;-69
2020/12/22 00:10:38;;;;;;;0.60;0.50;;;;;;;9.86;100.00;96538.88;4921116;28;20546;-69
2020/12/22 00:13:05;;;;;;;0.80;0.53;;;;;;;9.88;100.00;96526.63;4918063;29;20912;-70
2020/12/22 00:15:32;;;;;;;0.80;0.50;;;;;;;9.96;100.00;96527.00;4917491;28;20803;-69
2020/12/22 00:18:07;;;;;;;1.90;0.60;;;;;;;10.02;100.00;96534.44;4919711;28;20453;-71
2020/12/22 00:20:33;;;;;;;0.80;0.60;;;;;;;10.10;100.00;96537.44;4918925;28;20550;-69
2020/12/22 00:23:00;;;;;;;4.17;0.60;;;;;;;10.13;100.00;96520.81;4921705;28;20850;-70
2020/12/22 00:25:28;;;;;;;1.20;0.70;;;;;;;10.18;100.00;96516.97;4920433;28;20590;-69
2020/12/22 00:27:55;;;;;;;0.70;0.50;;;;;;;10.20;100.00;96496.94;4920769;28;20453;-71
2020/12/22 00:30:21;;;;;;;0.70;0.50;;;;;;;10.25;100.00;96518.28;4919232;28;20929;-69
2020/12/22 00:32:48;;;;;;;1.33;0.50;;;;;;;10.34;100.00;96491.72;4924718;28;20573;-69
2020/12/22 00:35:15;;;;;;;0.70;0.50;;;;;;;10.41;100.00;96487.78;4918859;28;20885;-70
2020/12/22 00:37:42;;;;;;;1.20;0.60;;;;;;;10.46;100.00;96506.53;4918410;29;21245;-69
2020/12/22 00:40:09;;;;;;;0.80;0.50;;;;;;;10.46;100.00;96498.72;4920377;28;20479;-70
2020/12/22 00:42:37;;;;;;;0.70;0.50;;;;;;;10.47;100.00;96500.41;4921118;28;20910;-69
2020/12/22 00:45:04;;;;;;;0.70;0.47;;;;;;;10.49;100.00;96503.75;4921975;28;21027;-69
2020/12/22 00:47:31;;;;;;;0.83;0.50;;;;;;;10.55;100.00;96498.13;4919668;28;20445;-69
2020/12/22 00:49:57;;;;;;;0.90;0.57;;;;;;;10.60;100.00;96510.88;4920908;28;20474;-70
2020/12/22 00:52:24;;;;;;;1.77;0.50;;;;;;;10.59;100.00;96504.84;4918186;28;20873;-70
2020/12/22 00:54:51;;;;;;;1.83;0.67;;;;;;;10.59;100.00;96504.84;4918802;28;20527;-69
2020/12/22 00:57:18;;;;;;;0.70;0.50;;;;;;;10.57;100.00;96509.31;4916609;28;20772;-70
2020/12/22 00:59:46;;;;;;;1.43;0.60;;;;;;;10.65;100.00;96506.22;4919864;28;20973;-70
2020/12/22 01:02:12;;;;;;;0.80;0.50;;;;;;;10.68;100.00;96509.44;4918288;28;20546;-69
2020/12/22 01:04:40;;;;;;;0.80;0.57;;;;;;;10.73;100.00;96510.00;4919790;28;20490;-70
2020/12/22 01:07:07;;;;;;;0.70;0.50;;;;;;;10.75;100.00;96513.34;4918862;28;21176;-69
2020/12/22 01:09:34;;;;;;;0.80;0.50;;;;;;;10.75;100.00;96533.34;4919978;28;20855;-72
2020/12/22 01:12:01;;;;;;;0.70;0.50;;;;;;;10.86;100.00;96523.91;4919691;28;20537;-69
2020/12/22 01:14:27;;;;;;;1.50;0.70;;;;;;;10.87;100.00;96520.38;4919666;28;20958;-69
2020/12/22 01:16:55;;;;;;;0.80;0.50;;;;;;;10.92;100.00;96518.31;4920954;28;20544;-69
2020/12/22 01:19:22;;;;;;;0.70;0.50;;;;;;;10.97;100.00;96523.22;4918504;28;20471;-69
2020/12/22 01:21:51;;;;;;;0.70;0.40;;;;;;;11.04;100.00;96509.69;4923072;28;20931;-71
2020/12/22 01:24:18;;;;;;;0.80;0.50;;;;;;;11.11;100.00;96513.56;4922115;28;20510;-70
2020/12/22 01:26:45;;;;;;;0.90;0.50;;;;;;;11.11;99.83;96507.53;4924755;28;20451;-69
2020/12/22 01:29:12;;;;;;;0.70;0.50;;;;;;;11.18;99.28;96514.84;4922061;28;20635;-69
2020/12/22 01:31:38;;;;;;;1.27;0.60;;;;;;;11.19;98.86;96521.72;4922612;28;20843;-69
2020/12/22 01:34:06;;;;;;;0.70;0.50;;;;;;;11.21;98.86;96521.63;4923363;28;20841;-69
2020/12/22 01:36:33;;;;;;;0.80;0.60;;;;;;;11.25;97.96;96526.53;4928065;28;20462;-68
2020/12/22 01:39:00;;;;;;;0.90;0.50;;;;;;;11.30;97.51;96523.63;4921964;28;20489;-69
2020/12/22 01:41:32;;;;;;;0.80;0.60;;;;;;;11.29;97.71;96525.41;4921224;28;20855;-69
2020/12/22 01:44:07;;;;;;;0.90;0.60;;;;;;;11.28;97.78;96534.13;4918709;28;20848;-68
2020/12/22 01:46:35;;;;;;;0.70;0.50;;;;;;;11.23;98.14;96524.94;4919223;28;20451;-67
2020/12/22 01:49:07;;;;;;;0.70;0.40;;;;;;;11.21;98.13;96522.44;4917000;28;21240;-68
2020/12/22 01:51:36;;;;;;;2.30;0.60;;;;;;;11.29;97.91;96517.59;4918910;28;20846;-69
2020/12/22 01:54:03;;;;;;;0.70;0.60;;;;;;;11.38;96.88;96523.94;4917214;28;20501;-67
2020/12/22 01:56:30;;;;;;;0.90;0.47;;;;;;;11.36;96.92;96529.28;4920185;28;20549;-68
2020/12/22 01:58:57;;;;;;;0.83;0.50;;;;;;;11.41;95.98;96535.00;4918487;28;20525;-68
2020/12/22 02:01:24;;;;;;;0.80;0.43;;;;;;;11.48;95.72;96543.25;4929005;28;20926;-68
2020/12/22 02:03:51;;;;;;;0.70;0.50;;;;;;;11.45;96.04;96548.66;4919381;28;20944;-68
2020/12/22 02:06:18;;;;;;;0.70;0.50;;;;;;;11.45;96.41;96539.09;4933510;28;20475;-68
2020/12/22 02:08:45;;;;;;;0.70;0.50;;;;;;;11.41;96.21;96529.78;4921053;28;20898;-68
2020/12/22 02:11:12;;;;;;;0.90;0.50;;;;;;;11.44;96.34;96526.16;4918080;28;21280;-68
2020/12/22 02:13:39;;;;;;;0.70;0.50;;;;;;;11.41;96.22;96529.78;4934208;28;20537;-71
2020/12/22 02:16:06;;;;;;;0.80;0.60;;;;;;;11.44;96.18;96521.78;4934031;28;20868;-71
2020/12/22 02:18:32;;;;;;;0.70;0.40;;;;;;;11.44;96.19;96532.22;4928050;28;20885;-68
2020/12/22 02:21:03;;;;;;;0.70;0.50;;;;;;;11.40;96.62;96535.09;4927820;28;20458;-68
2020/12/22 02:23:30;;;;;;;0.70;0.50;;;;;;;11.36;97.41;96529.28;4916588;28;20950;-73
2020/12/22 02:25:57;;;;;;;0.70;0.50;;;;;;;11.39;97.28;96523.00;4918016;28;20485;-70
2020/12/22 02:28:23;;;;;;;5.53;0.50;;;;;;;11.36;97.23;96516.25;4934351;28;20529;-70
2020/12/22 02:30:50;;;;;;;0.80;0.50;;;;;;;11.34;97.43;96512.88;4934839;28;20485;-71
2020/12/22 02:33:17;;;;;;;0.70;0.40;;;;;;;11.32;97.57;96519.97;4919795;28;20788;-70
2020/12/22 02:35:44;;;;;;;0.80;0.60;;;;;;;11.32;97.73;96511.31;4919687;28;20810;-70
2020/12/22 02:38:12;;;;;;;1.03;0.50;;;;;;;11.25;97.98;96510.03;4916571;28;20916;-70
2020/12/22 02:40:39;;;;;;;0.70;0.50;;;;;;;11.23;98.57;96512.78;4920009;28;21257;-70
2020/12/22 02:43:10;;;;;;;0.70;0.40;;;;;;;11.21;98.60;96514.63;4921660;28;20451;-70
2020/12/22 02:45:37;;;;;;;0.70;0.40;;;;;;;11.21;98.89;96524.22;4920964;29;20451;-70
2020/12/22 02:48:04;;;;;;;0.70;0.47;;;;;;;11.15;99.33;96509.84;4920652;29;20909;-70
2020/12/22 02:50:31;;;;;;;0.70;0.40;;;;;;;11.13;99.46;96506.47;4919940;29;20979;-69
2020/12/22 02:52:58;;;;;;;0.70;0.50;;;;;;;11.12;99.72;96501.38;4920048;29;20921;-69
2020/12/22 02:55:26;;;;;;;1.10;0.50;;;;;;;11.11;99.82;96513.56;4920377;28;20517;-69
2020/12/22 02:57:53;;;;;;;1.90;0.50;;;;;;;11.12;99.97;96528.25;4916817;28;20534;-71
2020/12/22 03:00:20;;;;;;;0.70;0.50;;;;;;;11.10;100.00;96501.47;4922814;28;20846;-70
2020/12/22 03:02:47;;;;;;;0.70;0.50;;;;;;;11.09;100.00;96505.03;4919351;29;20978;-70
2020/12/22 03:05:14;;;;;;;0.70;0.50;;;;;;;11.10;99.92;96496.28;4921488;28;20505;-72
2020/12/22 03:07:42;;;;;;;0.70;0.50;;;;;;;11.08;100.00;96492.09;4921890;28;20467;-70
2020/12/22 03:10:10;;;;;;;0.90;0.57;;;;;;;11.06;100.00;96497.38;4921635;28;20566;-70
2020/12/22 03:12:38;;;;;;;0.83;0.50;;;;;;;11.04;100.00;96501.88;4920415;28;20954;-70
2020/12/22 03:15:07;;;;;;;1.00;0.50;;;;;;;11.03;100.00;96488.94;4918463;29;20491;-70
2020/12/22 03:17:34;;;;;;;0.80;0.50;;;;;;;11.03;100.00;96502.81;4917917;28;20467;-71
2020/12/22 03:20:01;;;;;;;0.70;0.50;;;;;;;10.95;100.00;96502.47;4922322;28;20996;-69
2020/12/22 03:22:28;;;;;;;1.77;0.50;;;;;;;11.01;100.00;96499.47;4920396;28;20950;-69
2020/12/22 03:24:55;;;;;;;0.70;0.40;;;;;;;11.04;100.00;96496.66;4922467;28;20498;-69
2020/12/22 03:27:22;;;;;;;1.53;0.40;;;;;;;11.07;100.00;96493.88;4921254;28;20994;-69
2020/12/22 03:29:50;;;;;;;0.70;0.40;;;;;;;11.07;100.00;96488.66;4919896;29;20794;-70
2020/12/22 03:32:17;;;;;;;0.70;0.40;;;;;;;11.10;100.00;96491.06;4923663;28;20478;-69
2020/12/22 03:34:44;;;;;;;0.70;0.47;;;;;;;11.05;100.00;96482.69;4921451;28;20475;-69
2020/12/22 03:37:19;;;;;;;0.70;0.40;;;;;;;11.04;100.00;96482.81;4919732;29;20459;-70
2020/12/22 03:39:49;;;;;;;0.70;0.40;;;;;;;11.08;100.00;96486.88;4920082;28;20479;-70
2020/12/22 03:42:16;;;;;;;0.70;0.40;;;;;;;11.08;100.00;96482.53;4937945;28;21013;-70
2020/12/22 03:44:44;;;;;;;0.70;0.40;;;;;;;11.07;99.94;96499.09;4937363;28;21070;-70
2020/12/22 03:47:13;;;;;;;0.70;0.50;;;;;;;11.05;100.00;96493.13;4936888;28;20952;-69
2020/12/22 03:49:40;;;;;;;0.70;0.40;;;;;;;11.10;99.80;96491.06;4938092;28;20808;-69
2020/12/22 03:52:08;;;;;;;0.60;0.40;;;;;;;11.12;99.74;96504.00;4937514;28;20454;-69
2020/12/22 03:54:35;;;;;;;0.70;0.50;;;;;;;11.12;99.83;96510.03;4937677;28;20960;-70
2020/12/22 03:57:03;;;;;;;0.70;0.40;;;;;;;11.15;99.35;96509.84;4932000;28;20941;-70
2020/12/22 03:59:30;;;;;;;0.70;0.50;;;;;;;11.17;99.48;96507.97;4933240;28;20490;-72
2020/12/22 04:01:56;;;;;;;0.60;0.40;;;;;;;11.18;99.70;96506.16;4937488;28;20447;-70
2020/12/22 04:04:25;;;;;;;0.70;0.50;;;;;;;11.20;99.16;96515.56;4937678;28;21068;-69
2020/12/22 04:06:52;;;;;;;0.77;0.60;;;;;;;11.22;99.02;96518.91;4937553;28;20536;-69
2020/12/22 04:09:19;;;;;;;0.90;0.50;;;;;;;11.26;99.11;96519.56;4936060;28;20474;-69
2020/12/22 04:11:47;;;;;;;0.70;0.50;;;;;;;11.31;98.69;96526.13;4937622;28;20478;-69
2020/12/22 04:14:14;;;;;;;0.70;0.50;;;;;;;11.28;98.62;96526.31;4936966;28;20474;-69
2020/12/22 04:16:41;;;;;;;0.70;0.50;;;;;;;11.31;98.75;96514.84;4938126;28;20978;-70
2020/12/22 04:19:08;;;;;;;0.70;0.50;;;;;;;11.33;98.79;96516.44;4937777;28;20914;-69
2020/12/22 04:21:37;;;;;;;0.70;0.50;;;;;;;11.34;98.76;96515.50;4937562;28;20843;-71
2020/12/22 04:24:04;;;;;;;0.80;0.77;;;;;;;11.40;98.51;96520.31;4937131;28;20938;-70
2020/12/22 04:26:31;;;;;;;0.70;0.50;;;;;;;11.41;98.45;96514.16;4937380;28;20754;-70
2020/12/22 04:28:59;;;;;;;0.90;0.50;;;;;;;11.45;98.53;96517.38;4936647;28;20470;-70
2020/12/22 04:31:26;;;;;;;0.70;0.40;;;;;;;11.46;98.52;96516.44;4936790;28;22714;-70
2020/12/22 04:33:54;;;;;;;0.90;0.50;;;;;;;11.43;98.78;96530.50;4936457;28;20478;-69
2020/12/22 04:36:22;;;;;;;2.30;0.50;;;;;;;11.42;99.21;96523.63;4937719;28;20937;-70
2020/12/22 04:38:51;;;;;;;1.53;0.50;;;;;;;11.39;99.61;96534.28;4937056;28;20945;-69
2020/12/22 04:41:19;;;;;;;1.90;0.50;;;;;;;11.39;99.74;96526.44;4932623;28;20885;-68
2020/12/22 04:43:52;;;;;;;0.63;0.40;;;;;;;11.38;100.00;96532.59;4916090;28;21184;-69
2020/12/22 04:46:21;;;;;;;0.67;0.40;;;;;;;11.31;100.00;96514.84;4931289;28;20779;-69
2020/12/22 04:48:53;;;;;;;1.67;0.50;;;;;;;11.32;100.00;96539.97;4930495;28;20473;-69
2020/12/22 04:51:21;;;;;;;1.33;0.50;;;;;;;11.27;100.00;96521.22;4931500;28;20458;-69
2020/12/22 04:54:05;;;;;;;0.70;0.40;;;;;;;11.29;100.00;96517.59;4917135;28;20874;-69
2020/12/22 04:56:33;;;;;;;0.70;0.47;;;;;;;11.29;100.00;96516.75;4919603;28;20968;-69
2020/12/22 04:58:59;;;;;;;0.70;0.50;;;;;;;11.32;100.00;96516.53;4918882;28;20478;-69
2020/12/22 05:01:27;;;;;;;0.70;0.50;;;;;;;11.26;100.00;96512.56;4928701;28;21107;-68
2020/12/22 05:03:53;;;;;;;1.07;0.53;;;;;;;11.25;100.00;96513.50;4919048;28;20490;-68
2020/12/22 05:06:20;;;;;;;1.40;0.50;;;;;;;11.23;100.00;96523.19;4935264;28;20498;-68
2020/12/22 05:08:47;;;;;;;1.33;0.50;;;;;;;11.20;100.00;96533.78;4920438;28;20555;-68
2020/12/22 05:11:16;;;;;;;1.00;0.40;;;;;;;11.16;100.00;96537.56;4919966;28;20452;-69
2020/12/22 05:13:43;;;;;;;0.83;0.50;;;;;;;11.23;100.00;96538.81;4936570;28;20881;-69
2020/12/22 05:16:10;;;;;;;0.70;0.50;;;;;;;11.21;100.00;96543.28;4932737;28;20951;-69
2020/12/22 05:18:37;;;;;;;0.80;0.50;;;;;;;11.24;100.00;96535.28;4927641;28;20931;-70
2020/12/22 05:21:19;;;;;;;0.70;0.50;;;;;;;11.23;100.00;96546.63;4929615;28;20808;-69
2020/12/22 05:23:47;;;;;;;1.77;0.50;;;;;;;11.21;100.00;96530.25;4918706;28;20969;-71
2020/12/22 05:26:18;;;;;;;0.70;0.50;;;;;;;11.29;100.00;96528.00;4917713;28;20746;-69
2020/12/22 05:28:45;;;;;;;1.07;0.60;;;;;;;11.27;100.00;96534.25;4930946;28;20565;-68
2020/12/22 05:31:13;;;;;;;0.63;0.40;;;;;;;11.29;100.00;96530.63;4932205;28;20460;-68
2020/12/22 05:33:43;;;;;;;0.70;0.50;;;;;;;11.30;100.00;96524.47;4924381;28;20505;-68
2020/12/22 05:36:10;;;;;;;0.73;0.50;;;;;;;11.26;100.00;96522.16;4932022;28;20493;-69
2020/12/22 05:38:38;;;;;;;0.70;0.50;;;;;;;11.28;100.00;96526.31;4935862;28;21006;-68
2020/12/22 05:41:06;;;;;;;0.80;0.50;;;;;;;11.30;100.00;96537.50;4934399;28;20513;-69
2020/12/22 05:43:39;;;;;;;1.00;0.50;;;;;;;11.27;100.00;96540.28;4936671;28;20845;-68
2020/12/22 05:46:06;;;;;;;3.00;0.83;;;;;;;11.30;100.00;96547.06;4935637;28;20761;-69
2020/12/22 05:48:34;;;;;;;2.03;0.50;;;;;;;11.28;100.00;96541.94;4919264;28;20481;-68
2020/12/22 05:51:03;;;;;;;3.63;0.40;;;;;;;11.25;100.00;96542.16;4918354;28;20549;-68
2020/12/22 05:53:30;;;;;;;0.70;0.50;;;;;;;11.29;100.00;96548.84;4936070;28;20860;-68
2020/12/22 05:56:14;;;;;;;1.20;0.60;;;;;;;11.29;100.00;96559.28;4926286;28;20526;-68
2020/12/22 05:58:42;;;;;;;5.13;0.87;;;;;;;11.31;100.00;96557.41;4917854;28;20577;-68
2020/12/22 06:01:11;;;;;;;0.90;0.50;;;;;;;11.28;100.00;96557.56;4934860;28;20981;-68
2020/12/22 06:03:38;;;;;;;1.10;0.50;;;;;;;11.26;100.00;96556.84;4936167;28;21005;-66
2020/12/22 06:06:07;;;;;;;0.70;0.50;;;;;;;11.29;100.00;96551.47;4933036;28;20819;-68
2020/12/22 06:08:34;;;;;;;0.70;0.50;;;;;;;11.27;100.00;96555.91;4936251;28;20517;-68
2020/12/22 06:11:01;;;;;;;0.70;0.50;;;;;;;11.22;100.00;96555.41;4918344;28;20892;-68
2020/12/22 06:13:30;;;;;;;0.73;0.50;;;;;;;11.18;100.00;96561.72;4935400;28;20875;-69
2020/12/22 06:16:01;;;;;;;0.70;0.50;;;;;;;11.15;100.00;96561.94;4934322;28;20465;-69
2020/12/22 06:18:29;;;;;;;2.00;0.50;;;;;;;11.14;100.00;96556.81;4927784;28;20979;-69
2020/12/22 06:20:56;;;;;;;3.17;0.60;;;;;;;11.11;100.00;96570.88;4925650;28;21210;-69
2020/12/22 06:23:23;;;;;;;0.70;0.50;;;;;;;11.05;100.00;96566.06;4924637;28;20599;-69
2020/12/22 06:25:50;;;;;;;0.70;0.50;;;;;;;11.06;100.00;96569.50;4918523;28;20543;-68
2020/12/22 06:28:28;;;;;;;1.63;0.50;;;;;;;11.02;100.00;96575.81;4925183;28;20861;-71
2020/12/22 06:30:56;;;;;;;1.07;0.50;;;;;;;11.00;100.00;96568.13;4934312;28;20917;-69
2020/12/22 06:33:36;;;;;;;1.67;0.50;;;;;;;11.01;100.00;96558.53;4935712;28;20934;-69
2020/12/22 06:36:05;;;;;;;0.90;0.50;;;;;;;11.00;100.00;96562.06;4934927;28;20501;-68
2020/12/22 06:38:55;;;;;;;2.67;0.90;;;;;;;11.03;100.00;96560.13;4936531;28;21166;-69
2020/12/22 06:41:44;;;;;;;2.93;0.70;;;;;;;11.06;100.00;96557.28;4926383;28;20956;-69
2020/12/22 06:44:23;;;;;;;0.70;0.60;;;;;;;11.10;100.00;96548.38;4919793;29;21113;-68
2020/12/22 06:46:51;;;;;;;0.90;0.60;;;;;;;11.14;100.00;96549.00;4922602;28;20996;-68
2020/12/22 06:49:42;;;;;;;3.70;0.60;;;;;;;11.14;100.00;96555.06;4917686;29;20538;-68
2020/12/22 06:52:33;;;;;;;0.80;0.50;;;;;;;11.25;100.00;96552.56;4923662;28;20838;-68
2020/12/22 06:55:01;;;;;;;1.10;0.50;;;;;;;11.28;100.00;96549.75;4926765;28;20522;-69
2020/12/22 06:57:47;;;;;;;1.20;0.50;;;;;;;11.32;100.00;96558.22;4919443;28;20823;-70
2020/12/22 07:00:36;;;;;;;0.80;0.50;;;;;;;11.35;100.00;96553.63;4917788;28;21199;-68
2020/12/22 07:03:13;;;;;;;2.23;0.67;;;;;;;11.39;100.00;96565.53;4919791;28;20482;-69
2020/12/22 07:05:42;;;;;;;0.70;0.60;;;;;;;11.41;100.00;96566.28;4919343;29;20479;-68
2020/12/22 07:08:09;;;;;;;0.90;0.60;;;;;;;11.41;100.00;96584.50;4917935;29;20453;-68
2020/12/22 07:10:40;;;;;;;1.00;0.70;;;;;;;11.41;100.00;96575.88;4919634;29;21164;-70
2020/12/22 07:13:08;;;;;;;1.53;0.60;;;;;;;11.42;100.00;96580.97;4919772;28;20870;-68
2020/12/22 07:15:37;;;;;;;0.80;0.50;;;;;;;11.25;100.00;96557.78;4919511;29;20479;-68
2020/12/22 07:18:10;;;;;;;0.80;0.60;;;;;;;11.40;100.00;96577.63;4920172;28;20479;-68
2020/12/22 07:20:41;;;;;;;0.90;0.60;;;;;;;11.39;100.00;96581.19;4921708;28;20455;-68
2020/12/22 07:23:08;;;;;;;1.17;0.60;;;;;;;11.38;100.00;96592.53;4921356;28;20452;-69
2020/12/22 07:25:37;;;;;;;1.10;0.60;;;;;;;11.39;100.00;96586.41;4922276;28;20525;-68
2020/12/22 07:28:05;;;;;;;1.33;0.90;;;;;;;11.41;100.00;96579.31;4920739;28;20486;-67
2020/12/22 07:30:32;;;;;;;0.90;0.70;;;;;;;11.41;100.00;96584.50;4917958;28;20510;-69
2020/12/22 07:33:00;;;;;;;5.40;4.33;;;;;;;11.41;100.00;96574.09;4923389;28;20457;-71
2020/12/22 07:35:28;;;;;;;2.40;0.77;;;;;;;11.36;100.00;96586.59;4921708;28;20487;-68
2020/12/22 07:38:03;;;;;;;1.13;0.70;;;;;;;11.39;100.00;96578.56;4922590;28;20513;-68
2020/12/22 07:40:36;;;;;;;7.37;5.00;;;;;;;11.43;100.00;96587.03;4922769;28;20809;-68
2020/12/22 07:43:07;;;;;;;8.20;5.23;;;;;;;11.43;100.00;96593.06;4923412;28;20826;-68
2020/12/22 07:45:35;;;;;;;3.90;1.00;;;;;;;11.45;100.00;96600.78;4917823;28;20895;-68
2020/12/22 07:48:05;;;;;;;4.50;3.60;;;;;;;11.48;100.00;96587.56;4923525;28;20456;-68
2020/12/22 07:50:33;;;;;;;1.73;0.90;;;;;;;11.47;100.00;96578.06;4917788;28;20567;-68
2020/12/22 07:53:01;;;;;;;2.17;1.30;;;;;;;11.47;100.00;96594.53;4923528;28;20538;-68
2020/12/22 07:55:37;;;;;;;1.47;0.90;;;;;;;11.49;100.00;96582.25;4919212;28;20566;-67
2020/12/22 07:58:05;;;;;;;1.13;0.73;;;;;;;11.61;100.00;96596.25;4920014;28;20552;-68
2020/12/22 08:00:32;;;;;;;1.27;0.60;;;;;;;11.62;100.00;96592.75;4923201;28;21061;-68
2020/12/22 08:03:12;;;;;;;1.20;0.77;;;;;;;11.63;100.00;96594.41;4919340;28;20790;-68
2020/12/22 08:05:39;;;;;;;5.90;3.60;;;;;;;11.69;100.00;96600.03;4917809;28;20455;-69
2020/12/22 08:08:07;;;;;;;1.37;1.07;;;;;;;11.75;100.00;96598.78;4922408;28;20460;-68
2020/12/22 08:10:36;;;;;;;2.80;0.70;;;;;;;11.74;100.00;96605.81;4921346;28;20839;-69
2020/12/22 08:13:05;;;;;;;1.03;0.50;;;;;;;11.81;100.00;96606.22;4919455;28;20995;-69
2020/12/22 08:15:32;;;;;;;0.90;0.57;;;;;;;11.79;100.00;96605.50;4915888;28;20853;-69
2020/12/22 08:18:00;;;;;;;0.70;0.50;;;;;;;11.81;100.00;96603.63;4922077;28;20451;-68
2020/12/22 08:20:27;;;;;;;0.70;0.50;;;;;;;11.82;100.00;96621.78;4921017;28;20864;-68
2020/12/22 08:23:08;;;;;;;3.03;0.50;;;;;;;11.81;100.00;96609.69;4921741;28;20518;-69
2020/12/22 08:25:35;;;;;;;0.80;0.60;;;;;;;11.79;100.00;96618.53;4920817;28;20974;-71
2020/12/22 08:28:02;;;;;;;1.70;0.60;;;;;;;11.83;100.00;96618.22;4921382;28;20460;-68
2020/12/22 08:30:29;;;;;;;1.33;0.60;;;;;;;11.85;100.00;96625.97;4918132;28;20474;-68
2020/12/22 08:32:59;;;;;;;1.27;0.50;;;;;;;11.79;100.00;96621.97;4920524;28;20521;-68
2020/12/22 08:35:26;;;;;;;1.10;0.60;;;;;;;11.83;100.00;96628.66;4921391;28;20880;-68
2020/12/22 08:37:52;;;;;;;0.97;0.50;;;;;;;11.88;100.00;96628.34;4921317;28;20566;-68
2020/12/22 08:40:27;;;;;;;1.20;0.60;;;;;;;11.89;100.00;96633.47;4918978;28;21002;-68
2020/12/22 08:42:54;;;;;;;0.80;0.50;;;;;;;11.88;100.00;96644.84;4937208;28;21110;-68
2020/12/22 08:45:20;;;;;;;0.70;0.60;;;;;;;11.90;100.00;96656.00;4937388;28;20987;-68
2020/12/22 08:47:51;;;;;;;1.40;0.50;;;;;;;11.91;100.00;96652.47;4937352;28;20998;-72
2020/12/22 08:50:18;;;;;;;2.40;1.37;;;;;;;11.86;100.00;96649.31;4936834;28;21088;-68
2020/12/22 08:52:45;;;;;;;1.50;0.57;;;;;;;11.86;100.00;96659.75;4938031;28;20920;-69
2020/12/22 08:55:12;;;;;;;0.70;0.50;;;;;;;11.71;100.00;96645.09;4937000;28;20598;-69
2020/12/22 08:57:40;;;;;;;2.80;0.60;;;;;;;11.75;100.00;96659.63;4931684;28;20830;-68
2020/12/22 09:00:11;;;;;;;0.97;0.50;;;;;;;11.69;100.00;96667.00;4936481;28;20496;-69
2020/12/22 09:02:38;;;;;;;1.97;0.67;;;;;;;11.66;100.00;96673.25;4937938;28;20528;-68
2020/12/22 09:05:14;;;;;;;0.80;0.60;;;;;;;11.62;100.00;96661.34;4937052;28;20466;-69
2020/12/22 09:07:41;;;;;;;0.70;0.60;;;;;;;11.63;100.00;96670.84;4937130;28;21010;-68
2020/12/22 09:10:09;;;;;;;1.00;0.70;;;;;;;11.65;100.00;96671.56;4936784;28;20994;-69
2020/12/22 09:12:36;;;;;;;0.80;0.50;;;;;;;11.66;100.00;96668.06;4936260;28;20782;-68
2020/12/22 09:15:06;;;;;;;2.00;0.70;;;;;;;11.70;100.00;96658.25;4936842;28;20564;-69
2020/12/22 09:17:34;;;;;;;0.70;0.50;;;;;;;11.72;100.00;96662.41;4932668;28;20485;-68
2020/12/22 09:20:02;;;;;;;1.67;0.90;;;;;;;11.73;100.00;96669.31;4937390;28;20478;-70
2020/12/22 09:22:30;;;;;;;0.80;0.50;;;;;;;11.76;100.00;96669.09;4936520;28;20930;-69
2020/12/22 09:24:59;;;;;;;0.80;0.60;;;;;;;11.73;100.00;96664.13;4936745;28;20995;-68
2020/12/22 09:27:30;;;;;;;1.50;0.70;;;;;;;11.71;100.00;96665.97;4937189;28;20958;-68
2020/12/22 09:29:58;;;;;;;1.23;0.87;;;;;;;11.68;100.00;96660.97;4938019;28;20501;-68
2020/12/22 09:32:27;;;;;;;0.80;0.60;;;;;;;11.71;100.00;96660.75;4936849;28;20937;-68
2020/12/22 09:34:54;;;;;;;1.13;0.70;;;;;;;11.72;100.00;96667.63;4936441;28;20517;-68
2020/12/22 09:37:22;;;;;;;0.70;0.40;;;;;;;11.76;100.00;96669.09;4937163;28;20475;-68
2020/12/22 09:39:50;;;;;;;0.70;0.60;;;;;;;11.77;100.00;96668.16;4936679;28;20550;-68
2020/12/22 09:42:17;;;;;;;0.97;0.60;;;;;;;11.80;100.00;96678.41;4942009;28;20477;-69
2020/12/22 09:44:44;;;;;;;0.70;0.50;;;;;;;11.84;100.00;96679.06;4943403;28;20497;-70
2020/12/22 09:47:11;;;;;;;2.40;0.60;;;;;;;11.89;100.00;96677.81;4944369;28;20948;-71
2020/12/22 09:49:40;;;;;;;3.73;0.50;;;;;;;11.92;100.00;96677.59;4942302;28;20521;-69
2020/12/22 09:52:07;;;;;;;0.70;0.50;;;;;;;11.95;100.00;96674.81;4945786;28;20462;-68
2020/12/22 09:54:33;;;;;;;5.70;0.60;;;;;;;12.07;100.00;96673.97;4945420;28;20519;-69
2020/12/22 09:57:01;;;;;;;0.90;0.53;;;;;;;12.13;100.00;96681.41;4947202;28;21008;-69
2020/12/22 09:59:27;;;;;;;0.90;0.50;;;;;;;12.23;100.00;96669.41;4944134;28;20991;-69
2020/12/22 10:01:55;;;;;;;1.00;0.50;;;;;;;12.37;100.00;96674.53;4941096;28;20898;-69
2020/12/22 10:04:22;;;;;;;0.80;0.60;;;;;;;12.57;100.00;96679.22;4938945;28;20478;-69
2020/12/22 10:06:50;;;;;;;1.30;0.80;;;;;;;12.60;100.00;96681.63;4940859;28;20486;-69
2020/12/22 10:09:17;;;;;;;0.80;0.57;;;;;;;12.63;100.00;96676.22;4939110;28;21169;-70
2020/12/22 10:11:45;;;;;;;2.00;0.60;;;;;;;12.75;99.59;96675.38;4940150;28;20942;-69
2020/12/22 10:14:11;;;;;;;2.13;0.50;;;;;;;12.84;99.14;96680.78;4940915;28;21256;-72
2020/12/22 10:16:38;;;;;;;3.80;2.30;;;;;;;12.82;98.32;96674.81;4942765;28;21012;-69
2020/12/22 10:19:05;;;;;;;1.20;0.73;;;;;;;12.86;98.49;96670.22;4943723;28;20529;-68
2020/12/22 10:21:33;;;;;;;1.37;0.50;;;;;;;12.91;98.13;96657.69;4942664;28;20450;-69
2020/12/22 10:24:04;;;;;;;0.90;0.50;;;;;;;12.80;98.77;96670.66;4940384;28;20512;-71
2020/12/22 10:26:31;;;;;;;0.80;0.60;;;;;;;12.70;99.66;96672.22;4939895;28;20513;-69
2020/12/22 10:28:58;;;;;;;0.70;0.50;;;;;;;12.67;100.00;96679.44;4938926;28;20553;-69
2020/12/22 10:31:27;;;;;;;0.80;0.50;;;;;;;12.59;100.00;96682.56;4941240;28;20845;-70
2020/12/22 10:33:56;;;;;;;2.63;0.70;;;;;;;12.65;100.00;96674.31;4942275;28;20497;-69
2020/12/22 10:36:23;;;;;;;4.00;0.60;;;;;;;12.59;100.00;96679.94;4942202;28;20519;-70
2020/12/22 10:38:50;;;;;;;0.90;0.63;;;;;;;12.57;100.00;96679.22;4941784;28;20474;-70
2020/12/22 10:41:18;;;;;;;0.70;0.50;;;;;;;12.62;100.00;96679.75;4944713;28;20864;-69
2020/12/22 10:43:46;;;;;;;0.70;0.60;;;;;;;12.62;100.00;96681.53;4939039;28;20466;-70
2020/12/22 10:46:13;;;;;;;0.80;0.50;;;;;;;12.60;100.00;96680.81;4939740;28;20459;-70
2020/12/22 10:48:40;;;;;;;1.03;0.70;;;;;;;12.63;100.00;96686.66;4962005;23;20468;-45
2020/12/22 10:51:08;;;;;;;0.90;0.60;;;;;;;12.66;100.00;96683.00;4944368;28;20908;-47
2020/12/22 10:53:35;;;;;;;0.70;0.50;;;;;;;12.70;100.00;96690.50;4949308;28;20556;-45
2020/12/22 10:56:03;;;;;;;3.33;0.53;;;;;;;12.75;99.74;96670.97;4943264;28;20850;-45
2020/12/22 10:58:31;;;;;;;0.80;0.57;;;;;;;12.72;99.16;96672.13;4946493;28;20946;-43
2020/12/22 11:00:57;;;;;;;0.80;0.50;;;;;;;12.62;98.93;96663.25;4946580;28;20525;-48
2020/12/22 11:03:24;;;;;;;1.40;0.70;;;;;;;12.74;99.02;96689.34;4942084;28;20470;-49
2020/12/22 11:06:07;;;;;;;1.10;0.50;;;;;;;12.73;99.18;96700.75;4946673;28;20457;-47
2020/12/22 11:08:34;;;;;;;0.70;0.40;;;;;;;12.77;99.04;96689.16;4950253;28;21181;-44
2020/12/22 11:11:01;;;;;;;2.50;0.60;;;;;;;12.73;99.03;96700.75;4951007;28;20505;-43
2020/12/22 11:13:28;;;;;;;0.93;0.60;;;;;;;12.76;99.08;96690.09;4944618;28;20907;-48
2020/12/22 11:15:59;;;;;;;1.37;0.50;;;;;;;12.73;98.12;96690.28;4946761;28;20497;-47
2020/12/22 11:18:29;;;;;;;0.70;0.53;;;;;;;12.82;98.45;96679.19;4951300;28;20450;-49
2020/12/22 11:20:57;;;;;;;0.90;0.50;;;;;;;12.84;98.19;96672.13;4979840;28;20475;-46
2020/12/22 11:23:43;;;;;;;0.70;0.47;;;;;;;12.87;97.97;96666.66;4962426;28;20481;-44
2020/12/22 11:26:27;;;;;;;1.13;0.50;;;;;;;12.83;98.26;96666.03;4981017;28;20434;-46
2020/12/22 11:28:58;;;;;;;0.70;0.50;;;;;;;12.82;98.27;96676.59;4974115;28;20473;-48
2020/12/22 11:31:27;;;;;;;0.70;0.50;;;;;;;12.84;98.19;96669.50;4975525;28;21232;-46
2020/12/22 11:33:54;;;;;;;0.70;0.50;;;;;;;12.90;97.80;96666.47;4963323;28;20987;-47